createdAt,value
2022-09-10T00:01:38.713Z,2.87
2022-09-10T00:04:16.477Z,2.70
2022-09-10T00:06:48.356Z,3.13
2022-09-10T00:09:20.186Z,2.60
2022-09-10T00:11:47.478Z,2.90
2022-09-10T00:14:20.762Z,2.57
2022-09-10T00:16:48.496Z,2.80
2022-09-10T00:19:19.016Z,2.97
2022-09-10T00:21:46.321Z,3.05
2022-09-10T00:24:17.258Z,2.70
2022-09-10T00:26:45.274Z,2.83
2022-09-10T00:29:17.513Z,2.75
2022-09-10T00:31:47.137Z,3.00
2022-09-10T00:34:17.393Z,2.47
2022-09-10T00:36:46.852Z,2.90
2022-09-10T00:39:18.756Z,2.90
2022-09-10T00:41:47.907Z,2.70
2022-09-10T00:44:39.714Z,2.53
2022-09-10T00:47:21.226Z,2.40
2022-09-10T00:50:00.495Z,3.05
2022-09-10T00:52:29.351Z,2.23
2022-09-10T00:54:57.402Z,2.17
2022-09-10T00:57:26.777Z,2.87
2022-09-10T00:59:59.519Z,2.27
2022-09-10T01:02:28.170Z,2.20
2022-09-10T01:04:58.130Z,2.20
2022-09-10T01:07:29.350Z,2.43
2022-09-10T01:10:16.143Z,2.47
2022-09-10T01:12:51.508Z,2.17
2022-09-10T01:15:36.607Z,2.40
2022-09-10T01:18:13.332Z,2.38
2022-09-10T01:21:06.906Z,1.90
2022-09-10T01:23:34.126Z,2.17
2022-09-10T01:26:19.273Z,2.58
2022-09-10T01:28:50.425Z,2.65
2022-09-10T01:31:37.917Z,2.60
2022-09-10T01:34:30.010Z,2.50
2022-09-10T01:37:07.926Z,2.33
2022-09-10T01:39:39.163Z,2.58
2022-09-10T01:42:10.391Z,2.70
2022-09-10T01:44:44.574Z,2.40
2022-09-10T01:47:40.104Z,2.95
2022-09-10T01:50:45.932Z,2.80
2022-09-10T01:53:22.813Z,3.20
2022-09-10T01:56:04.205Z,2.77
2022-09-10T01:58:45.119Z,3.08
2022-09-10T02:01:25.498Z,3.20
2022-09-10T02:03:59.530Z,3.13
2022-09-10T02:06:32.349Z,3.03
2022-09-10T02:09:00.526Z,3.33
2022-09-10T02:11:32.254Z,3.00
2022-09-10T02:14:01.666Z,3.67
2022-09-10T02:16:39.208Z,3.60
2022-09-10T02:19:08.137Z,3.20
2022-09-10T02:21:36.802Z,3.70
2022-09-10T02:24:10.001Z,3.40
2022-09-10T02:26:42.588Z,3.63
2022-09-10T02:29:12.069Z,3.13
2022-09-10T02:31:41.991Z,3.37
2022-09-10T02:34:17.386Z,3.17
2022-09-10T02:36:44.884Z,2.87
2022-09-10T02:39:14.196Z,3.47
2022-09-10T02:41:47.563Z,3.03
2022-09-10T02:44:17.627Z,3.03
2022-09-10T02:46:47.060Z,3.10
2022-09-10T02:49:17.264Z,2.65
2022-09-10T02:51:47.541Z,2.47
2022-09-10T02:54:14.717Z,2.17
2022-09-10T02:56:44.485Z,2.38
2022-09-10T02:59:14.323Z,2.77
2022-09-10T03:01:41.549Z,2.70
2022-09-10T03:04:09.074Z,2.30
2022-09-10T03:06:36.873Z,2.08
2022-09-10T03:09:04.514Z,1.95
2022-09-10T03:11:34.790Z,2.20
2022-09-10T03:14:01.851Z,2.50
2022-09-10T03:16:29.078Z,2.28
2022-09-10T03:18:56.258Z,2.22
2022-09-10T03:21:25.271Z,2.90
2022-09-10T03:23:57.105Z,2.70
2022-09-10T03:26:26.748Z,2.70
2022-09-10T03:28:56.130Z,2.28
2022-09-10T03:31:23.266Z,3.17
2022-09-10T03:33:53.521Z,3.17
2022-09-10T03:36:23.000Z,2.92
2022-09-10T03:38:50.244Z,3.65
2022-09-10T03:41:17.501Z,3.30
2022-09-10T03:43:47.141Z,3.65
2022-09-10T03:46:14.453Z,3.90
2022-09-10T03:48:43.786Z,4.60
2022-09-10T03:51:11.053Z,4.28
2022-09-10T03:53:42.838Z,5.57
2022-09-10T03:56:12.860Z,5.15
2022-09-10T03:58:40.156Z,5.87
2022-09-10T04:01:07.683Z,5.93
2022-09-10T04:03:37.232Z,5.57
2022-09-10T04:06:10.366Z,5.55
2022-09-10T04:08:40.577Z,6.00
2022-09-10T04:11:07.812Z,5.60
2022-09-10T04:13:35.031Z,6.17
2022-09-10T04:16:04.763Z,5.20
2022-09-10T04:18:34.522Z,6.40
2022-09-10T04:21:01.916Z,6.80
2022-09-10T04:23:29.543Z,6.20
2022-09-10T04:25:59.332Z,6.87
2022-09-10T04:28:28.585Z,5.95
2022-09-10T04:30:55.791Z,6.10
2022-09-10T04:33:25.419Z,6.00
2022-09-10T04:35:52.647Z,6.77
2022-09-10T04:38:19.830Z,6.50
2022-09-10T04:40:49.297Z,6.90
2022-09-10T04:43:19.002Z,6.53
2022-09-10T04:45:46.171Z,6.03
2022-09-10T04:48:16.204Z,6.55
2022-09-10T04:50:59.257Z,6.70
2022-09-10T04:53:34.382Z,6.20
2022-09-10T04:56:01.665Z,6.85
2022-09-10T04:58:34.242Z,6.83
2022-09-10T05:01:05.277Z,6.38
2022-09-10T05:03:34.715Z,7.03
2022-09-10T05:06:02.492Z,6.93
2022-09-10T05:08:30.175Z,6.63
2022-09-10T05:11:02.719Z,7.00
2022-09-10T05:13:31.130Z,6.65
2022-09-10T05:16:07.721Z,6.65
2022-09-10T05:18:37.175Z,7.83
2022-09-10T05:21:05.326Z,8.30
2022-09-10T05:23:32.727Z,7.72
2022-09-10T05:26:04.741Z,6.95
2022-09-10T05:28:31.946Z,8.80
2022-09-10T05:30:59.105Z,7.60
2022-09-10T05:33:28.692Z,7.63
2022-09-10T05:35:57.964Z,8.00
2022-09-10T05:38:25.529Z,8.60
2022-09-10T05:40:57.231Z,10.43
2022-09-10T05:43:24.414Z,8.77
2022-09-10T05:45:56.900Z,10.95
2022-09-10T05:48:24.129Z,10.70
2022-09-10T05:50:53.756Z,10.60
2022-09-10T05:53:21.689Z,12.50
2022-09-10T05:55:53.422Z,11.07
2022-09-10T05:58:20.626Z,11.30
2022-09-10T06:00:55.010Z,11.17
2022-09-10T06:03:26.972Z,11.37
2022-09-10T06:05:55.750Z,12.87
2022-09-10T06:08:23.367Z,11.07
2022-09-10T06:11:02.581Z,10.90
2022-09-10T06:13:33.418Z,12.43
2022-09-10T06:16:05.011Z,11.07
2022-09-10T06:18:34.995Z,12.27
2022-09-10T06:21:12.581Z,11.60
2022-09-10T06:23:40.303Z,12.43
2022-09-10T06:26:12.268Z,14.95
2022-09-10T06:28:44.874Z,13.80
2022-09-10T06:31:17.041Z,14.73
2022-09-10T06:33:46.917Z,14.70
2022-09-10T06:36:18.865Z,14.32
2022-09-10T06:38:46.109Z,13.38
2022-09-10T06:41:17.237Z,12.98
2022-09-10T06:43:46.813Z,13.30
2022-09-10T06:46:54.947Z,13.98
2022-09-10T06:49:11.475Z,12.65
2022-09-10T06:51:41.342Z,13.50
2022-09-10T06:54:08.575Z,13.27
2022-09-10T06:56:42.869Z,13.23
2022-09-10T06:59:10.069Z,14.43
2022-09-10T07:01:41.864Z,12.25
2022-09-10T07:04:13.798Z,13.10
2022-09-10T07:06:41.107Z,13.23
2022-09-10T07:09:08.341Z,13.18
2022-09-10T07:11:40.661Z,13.13
2022-09-10T07:14:14.005Z,12.43
2022-09-10T07:16:46.427Z,12.80
2022-09-10T07:19:18.288Z,12.70
2022-09-10T07:21:45.453Z,12.55
2022-09-10T07:24:15.405Z,12.40
2022-09-10T07:26:47.376Z,12.55
2022-09-10T07:29:14.984Z,12.80
2022-09-10T07:31:42.146Z,12.60
2022-09-10T07:34:09.501Z,11.73
2022-09-10T07:36:36.706Z,11.38
2022-09-10T07:39:04.805Z,12.00
2022-09-10T07:41:36.946Z,12.07
2022-09-10T07:44:06.710Z,11.27
2022-09-10T07:46:37.923Z,12.52
2022-09-10T07:49:13.265Z,11.93
2022-09-10T07:51:45.685Z,12.02
2022-09-10T07:54:17.062Z,11.18
2022-09-10T07:56:46.663Z,12.32
2022-09-10T07:59:16.341Z,10.93
2022-09-10T08:01:44.630Z,11.55
2022-09-10T08:04:19.666Z,11.07
2022-09-10T08:06:46.841Z,10.40
2022-09-10T08:09:21.501Z,11.75
2022-09-10T08:11:50.853Z,11.82
2022-09-10T08:14:20.089Z,10.57
2022-09-10T08:16:47.180Z,10.27
2022-09-10T08:19:21.715Z,10.20
2022-09-10T08:21:48.905Z,10.07
2022-09-10T08:24:18.487Z,10.55
2022-09-10T08:26:45.660Z,10.35
2022-09-10T08:29:17.378Z,10.10
2022-09-10T08:31:47.672Z,9.77
2022-09-10T08:34:14.838Z,10.95
2022-09-10T08:36:42.227Z,9.60
2022-09-10T08:39:12.039Z,10.60
2022-09-10T08:41:39.157Z,9.73
2022-09-10T08:44:11.608Z,9.98
2022-09-10T08:46:55.600Z,10.85
2022-09-10T08:49:36.234Z,10.23
2022-09-10T08:52:03.317Z,9.50
2022-09-10T08:55:00.075Z,8.95
2022-09-10T08:57:47.185Z,9.20
2022-09-10T09:00:25.810Z,9.45
2022-09-10T09:03:18.493Z,10.48
2022-09-10T09:05:50.018Z,9.85
2022-09-10T09:08:27.199Z,8.57
2022-09-10T09:11:14.515Z,9.00
2022-09-10T09:14:02.563Z,9.65
2022-09-10T09:17:09.319Z,9.80
2022-09-10T09:19:59.152Z,8.90
2022-09-10T09:22:59.897Z,9.10
2022-09-10T09:26:09.832Z,8.13
2022-09-10T09:29:18.209Z,9.68
2022-09-10T09:31:52.098Z,10.00
2022-09-10T09:34:46.537Z,7.97
2022-09-10T09:37:21.451Z,8.82
2022-09-10T09:40:15.087Z,7.88
2022-09-10T09:43:28.331Z,7.43
2022-09-10T09:45:55.798Z,8.15
2022-09-10T09:48:24.509Z,7.63
2022-09-10T09:50:56.637Z,8.20
2022-09-10T09:53:29.143Z,7.53
2022-09-10T09:56:02.220Z,6.90
2022-09-10T09:58:37.297Z,7.10
2022-09-10T10:01:07.127Z,8.13
2022-09-10T10:03:54.694Z,7.20
2022-09-10T10:06:34.726Z,7.47
2022-09-10T10:09:06.906Z,6.75
2022-09-10T10:11:47.233Z,7.30
2022-09-10T10:14:20.648Z,6.80
2022-09-10T10:17:00.467Z,8.18
2022-09-10T10:19:36.779Z,6.97
2022-09-10T10:22:19.275Z,6.10
2022-09-10T10:24:49.608Z,6.45
2022-09-10T10:27:21.930Z,7.70
2022-09-10T10:30:01.615Z,5.90
2022-09-10T10:32:44.869Z,6.80
2022-09-10T10:35:54.783Z,5.78
2022-09-10T10:38:33.432Z,6.05
2022-09-10T10:41:33.353Z,6.47
2022-09-10T10:44:26.622Z,5.72
2022-09-10T10:47:30.011Z,5.22
2022-09-10T10:50:06.530Z,5.15
2022-09-10T10:53:11.798Z,5.70
2022-09-10T10:55:51.635Z,4.63
2022-09-10T10:58:40.711Z,5.03
2022-09-10T11:01:30.008Z,5.10
2022-09-10T11:04:18.572Z,4.03
2022-09-10T11:07:02.281Z,3.97
2022-09-10T11:09:40.882Z,4.18
2022-09-10T11:12:48.599Z,3.42
2022-09-10T11:15:37.122Z,3.80
2022-09-10T11:18:34.270Z,3.40
2022-09-10T11:21:14.512Z,3.60
2022-09-10T11:24:12.827Z,3.10
2022-09-10T11:26:44.257Z,2.92
2022-09-10T11:29:32.705Z,3.17
2022-09-10T11:32:07.807Z,3.92
2022-09-10T11:35:01.493Z,3.80
2022-09-10T11:38:10.370Z,3.63
2022-09-10T11:40:54.100Z,4.07
2022-09-10T11:43:48.524Z,3.58
2022-09-10T11:46:21.260Z,4.38
2022-09-10T11:48:50.826Z,3.38
2022-09-10T11:51:34.194Z,3.58
2022-09-10T11:54:03.644Z,4.10
2022-09-10T11:57:00.695Z,4.07
2022-09-10T11:59:42.492Z,3.42
2022-09-10T12:02:27.999Z,3.60
2022-09-10T12:05:28.089Z,3.70
2022-09-10T12:07:58.064Z,4.15
2022-09-10T12:10:55.019Z,3.20
2022-09-10T12:13:22.604Z,3.67
2022-09-10T12:15:57.329Z,3.75
2022-09-10T12:18:40.961Z,4.20
2022-09-10T12:21:20.222Z,3.78
2022-09-10T12:23:47.695Z,4.13
2022-09-10T12:26:19.883Z,4.30
2022-09-10T12:28:52.853Z,4.33
2022-09-10T12:31:21.837Z,5.28
2022-09-10T12:33:54.324Z,5.38
2022-09-10T12:36:29.759Z,4.95
2022-09-10T12:39:26.446Z,4.90
2022-09-10T12:41:53.493Z,5.47
2022-09-10T12:44:25.933Z,4.75
2022-09-10T12:47:18.691Z,4.65
2022-09-10T12:49:48.577Z,4.97
2022-09-10T12:52:24.134Z,5.22
2022-09-10T12:55:29.147Z,4.88
2022-09-10T12:57:59.740Z,4.75
2022-09-10T13:00:39.282Z,4.10
2022-09-10T13:03:18.211Z,4.53
2022-09-10T13:05:45.458Z,4.75
2022-09-10T13:08:21.731Z,4.38
2022-09-10T13:11:06.468Z,5.13
2022-09-10T13:13:56.524Z,4.00
2022-09-10T13:16:29.258Z,4.63
2022-09-10T13:19:15.307Z,3.45
2022-09-10T13:21:44.721Z,4.47
2022-09-10T13:24:36.224Z,3.90
2022-09-10T13:27:12.619Z,4.05
2022-09-10T13:30:19.126Z,4.50
2022-09-10T13:33:04.646Z,4.63
2022-09-10T13:35:49.756Z,5.28
2022-09-10T13:38:37.594Z,4.85
2022-09-10T13:41:37.251Z,4.55
2022-09-10T13:44:26.196Z,4.55
2022-09-10T13:46:57.309Z,3.70
2022-09-10T13:49:40.078Z,4.03
2022-09-10T13:52:13.157Z,4.30
2022-09-10T13:54:50.372Z,3.75
2022-09-10T13:57:33.016Z,3.60
2022-09-10T14:00:25.380Z,3.85
2022-09-10T14:02:57.096Z,3.63
2022-09-10T14:05:50.449Z,3.90
2022-09-10T14:08:23.463Z,4.03
2022-09-10T14:10:53.378Z,3.58
2022-09-10T14:13:28.350Z,3.42
2022-09-10T14:15:58.733Z,4.20
2022-09-10T14:18:36.960Z,4.25
2022-09-10T14:21:06.881Z,4.30
2022-09-10T14:23:35.700Z,4.45
2022-09-10T14:26:19.925Z,3.95
2022-09-10T14:28:51.850Z,4.68
2022-09-10T14:31:29.902Z,3.92
2022-09-10T14:34:20.073Z,4.38
2022-09-10T14:36:47.230Z,3.92
2022-09-10T14:39:24.074Z,4.03
2022-09-10T14:42:10.277Z,4.93
2022-09-10T14:44:42.338Z,4.05
2022-09-10T14:47:24.355Z,4.00
2022-09-10T14:49:52.602Z,4.40
2022-09-10T14:52:20.302Z,3.85
2022-09-10T14:54:49.644Z,3.83
2022-09-10T14:57:17.229Z,3.63
2022-09-10T14:59:48.670Z,3.00
2022-09-10T15:02:22.841Z,3.33
2022-09-10T15:04:52.806Z,2.85
2022-09-10T15:07:25.314Z,2.13
2022-09-10T15:09:53.670Z,3.20
2022-09-10T15:12:32.005Z,3.05
2022-09-10T15:15:01.203Z,2.55
2022-09-10T15:17:28.393Z,2.53
2022-09-10T15:19:55.997Z,3.00
2022-09-10T15:22:25.325Z,2.60
2022-09-10T15:25:13.294Z,2.85
2022-09-10T15:27:43.678Z,2.50
2022-09-10T15:30:16.283Z,2.35
2022-09-10T15:32:48.219Z,2.85
2022-09-10T15:35:20.030Z,3.42
2022-09-10T15:37:49.460Z,2.33
2022-09-10T15:40:18.831Z,2.38
2022-09-10T15:42:46.415Z,2.60
2022-09-10T15:45:13.879Z,2.30
2022-09-10T15:47:43.201Z,2.50
2022-09-10T15:50:16.689Z,2.55
2022-09-10T15:52:46.825Z,2.25
2022-09-10T15:55:21.057Z,2.13
2022-09-10T15:57:53.688Z,2.30
2022-09-10T16:00:23.342Z,2.97
2022-09-10T16:02:56.377Z,2.95
2022-09-10T16:05:26.588Z,3.17
2022-09-10T16:07:56.873Z,2.28
2022-09-10T16:10:26.408Z,2.60
2022-09-10T16:12:53.756Z,2.75
2022-09-10T16:15:23.194Z,2.22
2022-09-10T16:17:50.593Z,2.65
2022-09-10T16:20:17.770Z,3.08
2022-09-10T16:22:50.708Z,2.90
2022-09-10T16:25:20.094Z,2.60
2022-09-10T16:27:49.407Z,2.72
2022-09-10T16:30:19.168Z,2.65
2022-09-10T16:32:46.308Z,3.38
2022-09-10T16:35:18.226Z,2.38
2022-09-10T16:37:45.505Z,2.47
2022-09-10T16:40:19.186Z,2.50
2022-09-10T16:42:47.280Z,2.50
2022-09-10T16:45:16.835Z,3.13
2022-09-10T16:47:44.006Z,2.33
2022-09-10T16:50:11.163Z,3.20
2022-09-10T16:52:40.740Z,3.13
2022-09-10T16:55:10.280Z,2.92
2022-09-10T16:57:37.554Z,2.35
2022-09-10T17:00:07.723Z,2.55
2022-09-10T17:02:35.231Z,2.70
2022-09-10T17:05:02.631Z,2.30
2022-09-10T17:07:30.294Z,2.22
2022-09-10T17:10:00.755Z,2.30
2022-09-10T17:12:30.760Z,2.58
2022-09-10T17:15:02.512Z,1.90
2022-09-10T17:17:31.850Z,2.00
2022-09-10T17:19:59.376Z,2.05
2022-09-10T17:22:27.344Z,2.08
2022-09-10T17:24:56.867Z,2.17
2022-09-10T17:27:25.654Z,2.55
2022-09-10T17:29:55.296Z,2.35
2022-09-10T17:32:22.569Z,2.60
2022-09-10T17:34:52.097Z,3.03
2022-09-10T17:37:22.429Z,3.17
2022-09-10T17:39:51.539Z,2.83
2022-09-10T17:42:18.893Z,2.97
2022-09-10T17:44:47.191Z,2.70
2022-09-10T17:47:14.826Z,3.00
2022-09-10T17:49:46.664Z,3.10
2022-09-10T17:52:14.627Z,2.78
2022-09-10T17:54:41.892Z,3.22
2022-09-10T17:57:11.469Z,3.10
2022-09-10T17:59:39.452Z,3.05
2022-09-10T18:02:17.187Z,3.33
2022-09-10T18:04:44.401Z,3.15
2022-09-10T18:07:14.230Z,3.20
2022-09-10T18:09:41.453Z,2.90
2022-09-10T18:12:14.013Z,3.47
2022-09-10T18:14:42.098Z,3.60
2022-09-10T18:17:09.301Z,3.22
2022-09-10T18:19:38.790Z,3.50
2022-09-10T18:22:06.453Z,2.70
2022-09-10T18:24:33.689Z,3.10
2022-09-10T18:27:07.406Z,2.80
2022-09-10T18:29:41.458Z,2.85
2022-09-10T18:32:11.221Z,2.92
2022-09-10T18:34:39.335Z,2.58
2022-09-10T18:37:06.514Z,2.97
2022-09-10T18:39:36.136Z,2.40
2022-09-10T18:42:03.500Z,3.10
2022-09-10T18:44:40.372Z,2.83
2022-09-10T18:47:28.001Z,2.40
2022-09-10T18:50:02.103Z,2.90
2022-09-10T18:52:31.600Z,3.27
2022-09-10T18:54:58.766Z,3.30
2022-09-10T18:57:28.864Z,2.83
2022-09-10T18:59:58.394Z,2.55
2022-09-10T19:02:27.980Z,2.97
2022-09-10T19:05:10.681Z,2.80
2022-09-10T19:07:43.544Z,3.03
2022-09-10T19:10:12.838Z,3.30
2022-09-10T19:12:39.979Z,2.80
2022-09-10T19:15:09.652Z,3.60
2022-09-10T19:17:36.837Z,3.73
2022-09-10T19:20:04.298Z,3.57
2022-09-10T19:22:36.709Z,3.30
2022-09-10T19:25:04.277Z,4.03
2022-09-10T19:27:35.124Z,4.50
2022-09-10T19:30:07.341Z,4.93
2022-09-10T19:32:34.960Z,4.85
2022-09-10T19:35:04.300Z,3.97
2022-09-10T19:37:31.456Z,4.43
2022-09-10T19:40:01.184Z,4.07
2022-09-10T19:42:30.843Z,3.88
2022-09-10T19:45:00.306Z,4.50
2022-09-10T19:47:27.395Z,4.38
2022-09-10T19:49:59.404Z,4.25
2022-09-10T19:52:28.868Z,4.60
2022-09-10T19:55:00.339Z,3.80
2022-09-10T19:57:29.245Z,4.15
2022-09-10T19:59:56.422Z,3.75
2022-09-10T20:02:28.293Z,4.40
2022-09-10T20:04:56.347Z,4.43
2022-09-10T20:07:23.873Z,4.95
2022-09-10T20:09:53.397Z,4.95
2022-09-10T20:12:25.112Z,4.07
2022-09-10T20:14:54.224Z,4.22
2022-09-10T20:17:21.616Z,4.25
2022-09-10T20:19:51.433Z,4.57
2022-09-10T20:22:21.603Z,4.57
2022-09-10T20:24:51.260Z,4.63
2022-09-10T20:27:21.398Z,4.68
2022-09-10T20:29:48.546Z,4.60
2022-09-10T20:32:15.823Z,4.40
2022-09-10T20:34:45.517Z,4.47
2022-09-10T20:37:17.530Z,4.53
2022-09-10T20:39:48.270Z,4.43
2022-09-10T20:42:18.051Z,4.78
2022-09-10T20:44:45.139Z,5.25
2022-09-10T20:47:12.644Z,4.75
2022-09-10T20:49:44.218Z,4.70
2022-09-10T20:52:11.431Z,5.70
2022-09-10T20:54:38.534Z,4.80
2022-09-10T20:57:08.058Z,4.80
2022-09-10T20:59:37.476Z,4.68
2022-09-10T21:02:11.865Z,4.75
2022-09-10T21:04:39.613Z,5.28
2022-09-10T21:07:11.423Z,4.55
2022-09-10T21:09:38.813Z,5.00
2022-09-10T21:12:06.370Z,4.90
2022-09-10T21:14:36.112Z,4.55
2022-09-10T21:17:03.342Z,4.68
2022-09-10T21:19:30.811Z,4.97
2022-09-10T21:21:57.957Z,5.05
2022-09-10T21:24:26.741Z,4.93
2022-09-10T21:26:53.929Z,5.05
2022-09-10T21:29:21.612Z,5.00
2022-09-10T21:31:53.322Z,4.82
2022-09-10T21:34:23.532Z,4.72
2022-09-10T21:36:51.359Z,4.57
2022-09-10T21:39:23.539Z,5.20
2022-09-10T21:41:55.544Z,4.90
2022-09-10T21:44:25.094Z,4.70
2022-09-10T21:46:55.525Z,5.27
2022-09-10T21:49:22.934Z,5.35
2022-09-10T21:51:55.110Z,4.60
2022-09-10T21:54:25.523Z,5.55
2022-09-10T21:57:00.078Z,5.43
2022-09-10T21:59:29.795Z,5.80
2022-09-10T22:01:57.106Z,5.47
2022-09-10T22:04:27.041Z,6.05
2022-09-10T22:06:54.366Z,5.95
2022-09-10T22:09:24.371Z,5.65
2022-09-10T22:11:54.173Z,5.68
2022-09-10T22:14:25.315Z,5.30
2022-09-10T22:16:53.466Z,6.30
2022-09-10T22:19:27.337Z,5.90
2022-09-10T22:21:59.290Z,5.63
2022-09-10T22:24:29.446Z,6.20
2022-09-10T22:27:01.294Z,5.68
2022-09-10T22:29:29.184Z,6.43
2022-09-10T22:31:56.898Z,5.93
2022-09-10T22:34:27.475Z,5.90
2022-09-10T22:36:54.718Z,5.72
2022-09-10T22:39:23.101Z,5.47
2022-09-10T22:41:51.199Z,6.60
2022-09-10T22:44:21.994Z,6.68
2022-09-10T22:46:49.722Z,6.00
2022-09-10T22:49:19.946Z,6.32
2022-09-10T22:51:47.152Z,6.38
2022-09-10T22:54:17.398Z,7.30
2022-09-10T22:57:00.962Z,7.50
2022-09-10T22:59:30.172Z,6.88
2022-09-10T23:01:57.579Z,7.03
2022-09-10T23:04:26.855Z,7.30
2022-09-10T23:06:54.047Z,7.30
2022-09-10T23:09:22.257Z,6.90
2022-09-10T23:11:49.535Z,7.18
2022-09-10T23:14:20.745Z,7.50
2022-09-10T23:16:50.863Z,7.80
2022-09-10T23:19:25.041Z,7.45
2022-09-10T23:21:55.717Z,7.68
2022-09-10T23:24:24.778Z,7.57
2022-09-10T23:26:53.252Z,7.38
2022-09-10T23:29:23.028Z,7.35
2022-09-10T23:31:55.180Z,8.27
2022-09-10T23:34:22.917Z,7.50
2022-09-10T23:36:51.478Z,7.67
2022-09-10T23:39:21.206Z,7.78
2022-09-10T23:41:50.318Z,7.68
2022-09-10T23:44:20.446Z,7.35
2022-09-10T23:46:48.193Z,7.72
2022-09-10T23:49:16.045Z,7.80
2022-09-10T23:51:45.407Z,7.28
2022-09-10T23:54:12.958Z,7.93
2022-09-10T23:56:40.704Z,8.13
2022-09-10T23:59:08.172Z,7.70
